createdAt,value
2019-03-09T00:02:26.788Z,100730.48
2019-03-09T00:04:58.079Z,100731.56
2019-03-09T00:07:29.663Z,100729.98
2019-03-09T00:10:00.002Z,100731.78
2019-03-09T00:12:30.358Z,100733.39
2019-03-09T00:15:01.036Z,100736.15
2019-03-09T00:17:32.674Z,100738.87
2019-03-09T00:20:03.032Z,100735.56
2019-03-09T00:22:33.441Z,100726.41
2019-03-09T00:25:05.498Z,100717.94
2019-03-09T00:27:37.491Z,100727.06
2019-03-09T00:30:10.610Z,100732.78
2019-03-09T00:32:40.985Z,100723.38
2019-03-09T00:35:11.277Z,100721.87
2019-03-09T00:37:42.736Z,100723.15
2019-03-09T00:40:13.331Z,100720.14
2019-03-09T00:42:43.683Z,100718.44
2019-03-09T00:45:16.696Z,100711.92
2019-03-09T00:47:47.042Z,100704.34
2019-03-09T00:50:17.307Z,100691.99
2019-03-09T00:52:47.704Z,100684.62
2019-03-09T00:57:51.271Z,100680.98
2019-03-09T01:00:21.633Z,100678.23
2019-03-09T01:02:52.001Z,100690.64
2019-03-09T01:05:22.347Z,100695.37
2019-03-09T01:07:52.630Z,100700.72
2019-03-09T01:10:23.131Z,100690.91
2019-03-09T01:12:53.495Z,100685.48
2019-03-09T01:15:23.975Z,100690.42
2019-03-09T01:17:54.261Z,100683.50
2019-03-09T01:20:24.646Z,100678.14
2019-03-09T01:22:54.987Z,100671.07
2019-03-09T01:25:25.345Z,100664.56
2019-03-09T01:27:55.638Z,100666.63
2019-03-09T01:30:25.919Z,100664.88
2019-03-09T01:32:56.386Z,100657.09
2019-03-09T01:35:26.744Z,100665.79
2019-03-09T01:37:57.099Z,100661.83
2019-03-09T01:40:27.463Z,100654.90
2019-03-09T01:42:57.848Z,100651.30
2019-03-09T01:45:28.193Z,100647.88
2019-03-09T01:47:58.569Z,100649.20
2019-03-09T01:50:28.931Z,100650.64
2019-03-09T01:52:59.227Z,100644.25
2019-03-09T01:55:29.518Z,100650.64
2019-03-09T01:58:00.929Z,100643.11
2019-03-09T02:00:31.452Z,100639.02
2019-03-09T02:03:01.745Z,100637.80
2019-03-09T02:05:32.124Z,100627.73
2019-03-09T02:08:02.406Z,100638.27
2019-03-09T02:10:34.304Z,100621.50
2019-03-09T02:13:04.599Z,100619.26
2019-03-09T02:15:35.061Z,100606.00
2019-03-09T02:18:05.367Z,100602.61
2019-03-09T02:20:35.650Z,100609.73
2019-03-09T02:23:05.936Z,100607.65
2019-03-09T02:25:36.210Z,100599.78
2019-03-09T02:28:06.515Z,100598.75
2019-03-09T02:30:36.886Z,100591.67
2019-03-09T02:33:07.372Z,100589.42
2019-03-09T02:35:37.669Z,100588.94
2019-03-09T02:38:09.655Z,100581.82
2019-03-09T02:40:39.954Z,100576.15
2019-03-09T02:43:10.240Z,100572.59
2019-03-09T02:45:40.531Z,100564.92
2019-03-09T02:48:10.839Z,100563.00
2019-03-09T02:50:42.768Z,100555.11
2019-03-09T02:53:13.058Z,100559.80
2019-03-09T02:55:43.352Z,100553.61
2019-03-09T02:58:13.615Z,100554.19
2019-03-09T03:01:00.742Z,100540.62
2019-03-09T03:03:31.045Z,100541.97
2019-03-09T03:06:01.338Z,100538.34
2019-03-09T03:08:31.644Z,100536.71
2019-03-09T03:11:01.938Z,100533.44
2019-03-09T03:13:32.286Z,100523.92
2019-03-09T03:16:02.585Z,100520.08
2019-03-09T03:18:33.920Z,100512.56
2019-03-09T03:21:04.208Z,100502.40
2019-03-09T03:23:34.511Z,100506.66
2019-03-09T03:26:05.967Z,100497.34
2019-03-09T03:28:36.231Z,100493.02
2019-03-09T03:31:06.577Z,100495.86
2019-03-09T03:33:36.890Z,100486.62
2019-03-09T03:36:07.247Z,100490.89
2019-03-09T03:38:37.614Z,100477.81
2019-03-09T03:41:07.987Z,100481.52
2019-03-09T03:43:38.296Z,100476.05
2019-03-09T03:46:08.620Z,100469.30
2019-03-09T03:48:38.887Z,100466.94
2019-03-09T03:51:09.244Z,100462.01
2019-03-09T03:53:39.516Z,100460.08
2019-03-09T03:56:09.900Z,100466.50
2019-03-09T03:58:40.471Z,100464.64
2019-03-09T04:01:10.732Z,100458.45
2019-03-09T04:03:41.080Z,100458.70
2019-03-09T04:06:11.441Z,100451.24
2019-03-09T04:08:41.730Z,100448.27
2019-03-09T04:11:12.050Z,100447.78
2019-03-09T04:13:42.511Z,100445.72
2019-03-09T04:16:12.948Z,100443.80
2019-03-09T04:18:43.281Z,100432.95
2019-03-09T04:21:13.624Z,100424.56
2019-03-09T04:23:44.157Z,100425.33
2019-03-09T04:26:14.511Z,100422.34
2019-03-09T04:28:44.860Z,100410.34
2019-03-09T04:31:15.208Z,100410.30
2019-03-09T04:33:45.477Z,100407.45
2019-03-09T04:36:15.871Z,100400.56
2019-03-09T04:38:46.241Z,100382.09
2019-03-09T04:41:16.616Z,100379.41
2019-03-09T04:43:47.057Z,100380.11
2019-03-09T04:46:17.475Z,100378.67
2019-03-09T04:48:47.777Z,100380.66
2019-03-09T04:51:18.340Z,100369.77
2019-03-09T04:53:48.663Z,100369.77
2019-03-09T04:56:19.020Z,100369.63
2019-03-09T04:58:49.304Z,100372.17
2019-03-09T05:01:19.677Z,100376.14
2019-03-09T05:03:59.373Z,100387.78
2019-03-09T05:06:29.652Z,100383.89
2019-03-09T05:09:04.530Z,100376.86
2019-03-09T05:11:35.958Z,100367.78
2019-03-09T05:14:06.379Z,100360.89
2019-03-09T05:16:36.752Z,100354.92
2019-03-09T05:19:07.074Z,100348.17
2019-03-09T05:21:37.421Z,100345.23
2019-03-09T05:24:07.778Z,100339.88
2019-03-09T05:26:38.136Z,100322.73
2019-03-09T05:29:09.952Z,100327.36
2019-03-09T05:31:40.331Z,100331.69
2019-03-09T05:34:10.679Z,100322.63
2019-03-09T05:36:41.011Z,100317.18
2019-03-09T05:39:11.358Z,100302.46
2019-03-09T05:41:41.732Z,100290.00
2019-03-09T05:44:12.109Z,100286.46
2019-03-09T05:46:42.450Z,100282.20
2019-03-09T05:49:12.801Z,100278.75
2019-03-09T05:51:43.153Z,100273.91
2019-03-09T05:54:13.827Z,100267.77
2019-03-09T05:56:44.176Z,100262.16
2019-03-09T05:59:14.647Z,100257.55
2019-03-09T06:01:45.014Z,100257.06
2019-03-09T06:04:15.401Z,100248.66
2019-03-09T06:06:46.725Z,100234.41
2019-03-09T06:09:17.153Z,100225.45
2019-03-09T06:11:47.563Z,100224.03
2019-03-09T06:14:17.955Z,100213.97
2019-03-09T06:16:48.308Z,100204.56
2019-03-09T06:19:18.884Z,100200.47
2019-03-09T06:21:49.239Z,100192.52
2019-03-09T06:24:19.814Z,100186.53
2019-03-09T06:26:50.353Z,100184.30
2019-03-09T06:29:20.752Z,100180.78
2019-03-09T06:32:11.032Z,100173.52
2019-03-09T06:34:41.504Z,100168.47
2019-03-09T06:37:12.029Z,100162.41
2019-03-09T06:39:42.436Z,100160.84
2019-03-09T06:42:22.004Z,100164.52
2019-03-09T06:44:54.028Z,100167.01
2019-03-09T06:47:24.387Z,100173.73
2019-03-09T06:49:55.648Z,100169.69
2019-03-09T06:52:26.028Z,100150.38
2019-03-09T06:54:57.073Z,100149.53
2019-03-09T06:57:29.151Z,100147.47
2019-03-09T06:59:59.617Z,100141.42
2019-03-09T07:02:29.997Z,100135.47
2019-03-09T07:05:00.353Z,100140.75
2019-03-09T07:07:30.866Z,100132.45
2019-03-09T07:10:01.409Z,100132.59
2019-03-09T07:12:33.461Z,100120.97
2019-03-09T07:15:24.565Z,100113.71
2019-03-09T07:17:57.044Z,100106.73
2019-03-09T07:20:27.407Z,100103.62
2019-03-09T07:22:57.815Z,100094.31
2019-03-09T07:25:28.131Z,100086.14
2019-03-09T07:28:00.713Z,100075.78
2019-03-09T07:30:31.252Z,100059.57
2019-03-09T07:33:01.702Z,100053.52
2019-03-09T07:35:33.754Z,100058.67
2019-03-09T07:38:04.224Z,100039.41
2019-03-09T07:40:34.640Z,100047.05
2019-03-09T07:43:05.057Z,100041.45
2019-03-09T07:45:35.417Z,100031.62
2019-03-09T07:48:05.757Z,100019.80
2019-03-09T07:50:36.063Z,100023.25
2019-03-09T07:53:06.434Z,100018.58
2019-03-09T07:55:36.733Z,100007.25
2019-03-09T07:58:08.232Z,100008.27
2019-03-09T08:00:38.677Z,100005.25
2019-03-09T08:03:09.053Z,100002.14
2019-03-09T08:05:39.438Z,100001.00
2019-03-09T08:08:11.824Z,99988.84
2019-03-09T08:10:42.235Z,99985.48
2019-03-09T08:13:12.789Z,99985.66
2019-03-09T08:15:43.081Z,99977.68
2019-03-09T08:18:13.437Z,99974.16
2019-03-09T08:20:43.805Z,99973.45
2019-03-09T08:23:14.187Z,99969.17
2019-03-09T08:25:44.534Z,99964.42
2019-03-09T08:28:16.511Z,99963.56
2019-03-09T08:30:47.075Z,99967.97
2019-03-09T08:33:17.337Z,99963.23
2019-03-09T08:35:47.652Z,99966.27
2019-03-09T08:38:17.925Z,99965.38
2019-03-09T08:40:48.414Z,99958.68
2019-03-09T08:43:18.841Z,99952.41
2019-03-09T08:45:50.791Z,99952.01
2019-03-09T08:48:21.151Z,99942.20
2019-03-09T08:50:51.501Z,99942.79
2019-03-09T08:53:22.816Z,99943.97
2019-03-09T08:55:53.106Z,99939.41
2019-03-09T08:58:23.425Z,99929.06
2019-03-09T09:00:53.798Z,99926.13
2019-03-09T09:03:25.294Z,99924.78
2019-03-09T09:05:55.666Z,99913.84
2019-03-09T09:08:26.182Z,99909.04
2019-03-09T09:10:56.480Z,99915.46
2019-03-09T09:13:26.772Z,99912.95
2019-03-09T09:15:57.392Z,99908.36
2019-03-09T09:18:27.717Z,99904.11
2019-03-09T09:21:00.615Z,99912.22
2019-03-09T09:23:31.108Z,99908.88
2019-03-09T09:26:01.468Z,99909.20
2019-03-09T09:28:34.164Z,99904.16
2019-03-09T09:31:06.206Z,99904.20
2019-03-09T09:33:36.568Z,99902.09
2019-03-09T09:36:06.909Z,99900.37
2019-03-09T09:38:37.331Z,99888.86
2019-03-09T09:41:07.792Z,99890.52
2019-03-09T09:43:38.132Z,99880.41
2019-03-09T09:46:08.908Z,99880.85
2019-03-09T09:48:39.597Z,99891.72
2019-03-09T09:51:10.452Z,99886.86
2019-03-09T09:53:40.884Z,99884.08
2019-03-09T09:56:12.891Z,99884.95
2019-03-09T09:58:43.248Z,99874.34
2019-03-09T10:01:13.725Z,99873.27
2019-03-09T10:03:44.226Z,99874.61
2019-03-09T10:06:14.596Z,99881.16
2019-03-09T10:08:44.894Z,99874.41
2019-03-09T10:11:15.306Z,99866.20
2019-03-09T10:13:45.713Z,99871.80
2019-03-09T10:16:16.142Z,99865.34
2019-03-09T10:18:46.607Z,99862.16
2019-03-09T10:21:16.965Z,99844.60
2019-03-09T10:23:47.327Z,99860.31
2019-03-09T10:26:17.698Z,99849.69
2019-03-09T10:28:49.153Z,99857.83
2019-03-09T10:31:20.978Z,99841.44
2019-03-09T10:33:51.382Z,99846.50
2019-03-09T10:36:21.737Z,99846.76
2019-03-09T10:38:52.022Z,99856.08
2019-03-09T10:41:22.373Z,99856.70
2019-03-09T10:43:52.780Z,99860.31
2019-03-09T10:46:23.102Z,99852.53
2019-03-09T10:48:53.367Z,99857.81
2019-03-09T10:51:23.722Z,99849.67
2019-03-09T10:53:54.364Z,99848.48
2019-03-09T10:56:24.981Z,99834.53
2019-03-09T10:58:55.473Z,99841.65
2019-03-09T11:01:25.819Z,99838.42
2019-03-09T11:03:56.157Z,99832.94
2019-03-09T11:06:26.449Z,99837.84
2019-03-09T11:08:56.737Z,99831.29
2019-03-09T11:11:27.060Z,99834.86
2019-03-09T11:13:57.336Z,99841.45
2019-03-09T11:16:27.662Z,99834.66
2019-03-09T11:18:57.943Z,99836.80
2019-03-09T11:21:28.230Z,99831.66
2019-03-09T11:24:00.069Z,99842.76
2019-03-09T11:26:30.457Z,99837.17
2019-03-09T11:29:01.829Z,99842.91
2019-03-09T11:31:32.170Z,99836.66
2019-03-09T11:34:02.459Z,99838.51
2019-03-09T11:36:32.855Z,99834.13
2019-03-09T11:39:03.628Z,99835.81
2019-03-09T11:41:36.647Z,99830.44
2019-03-09T11:44:07.296Z,99820.27
2019-03-09T11:46:37.634Z,99820.45
2019-03-09T11:49:07.936Z,99821.30
2019-03-09T11:51:38.212Z,99818.94
2019-03-09T11:54:08.571Z,99825.66
2019-03-09T11:56:39.886Z,99821.56
2019-03-09T11:59:10.200Z,99806.91
2019-03-09T12:01:40.573Z,99805.48
2019-03-09T12:04:10.871Z,99811.17
2019-03-09T12:06:41.329Z,99814.70
2019-03-09T12:09:11.759Z,99803.83
2019-03-09T12:11:42.352Z,99793.49
2019-03-09T12:14:12.638Z,99800.86
2019-03-09T12:16:42.922Z,99797.25
2019-03-09T12:19:13.200Z,99787.87
2019-03-09T12:21:43.552Z,99805.53
2019-03-09T12:24:18.720Z,99802.34
2019-03-09T12:26:46.629Z,99793.70
2019-03-09T12:29:16.935Z,99800.40
2019-03-09T12:31:49.319Z,99803.36
2019-03-09T12:34:19.909Z,99791.45
2019-03-09T12:36:50.318Z,99777.42
2019-03-09T12:39:20.770Z,99792.88
2019-03-09T12:41:52.549Z,99787.38
2019-03-09T12:44:23.058Z,99789.35
2019-03-09T12:46:53.482Z,99795.03
2019-03-09T12:49:23.924Z,99789.93
2019-03-09T12:51:54.306Z,99777.86
2019-03-09T12:54:26.215Z,99779.92
2019-03-09T12:56:56.570Z,99769.16
2019-03-09T12:59:26.949Z,99765.20
2019-03-09T13:01:58.384Z,99754.52
2019-03-09T13:04:29.525Z,99754.64
2019-03-09T13:07:00.090Z,99749.50
2019-03-09T13:09:30.700Z,99752.14
2019-03-09T13:12:00.995Z,99767.37
2019-03-09T13:14:31.381Z,99762.88
2019-03-09T13:17:01.778Z,99769.48
2019-03-09T13:19:32.240Z,99778.70
2019-03-09T13:22:02.601Z,99787.58
2019-03-09T13:24:32.991Z,99783.66
2019-03-09T13:27:03.290Z,99787.42
2019-03-09T13:29:33.612Z,99796.06
2019-03-09T13:32:03.967Z,99796.86
2019-03-09T13:34:34.318Z,99804.06
2019-03-09T13:37:04.597Z,99786.08
2019-03-09T13:39:35.699Z,99792.13
2019-03-09T13:42:06.250Z,99807.31
2019-03-09T13:44:36.558Z,99806.91
2019-03-09T13:47:06.886Z,99798.88
2019-03-09T13:49:37.323Z,99805.44
2019-03-09T13:52:07.787Z,99802.05
2019-03-09T13:54:39.696Z,99807.86
2019-03-09T13:57:11.366Z,99808.16
2019-03-09T13:59:41.784Z,99808.53
2019-03-09T14:02:12.590Z,99817.08
2019-03-09T14:04:43.318Z,99819.49
2019-03-09T14:07:14.041Z,99815.78
2019-03-09T14:09:44.372Z,99811.31
2019-03-09T14:12:14.683Z,99804.78
2019-03-09T14:14:45.054Z,99810.84
2019-03-09T14:17:15.348Z,99810.42
2019-03-09T14:19:46.165Z,99812.38
2019-03-09T14:22:16.937Z,99800.94
2019-03-09T14:24:47.659Z,99803.09
2019-03-09T14:27:19.424Z,99809.95
2019-03-09T14:29:50.441Z,99812.44
2019-03-09T14:32:21.203Z,99810.48
2019-03-09T14:34:52.169Z,99801.27
2019-03-09T14:37:23.066Z,99808.64
2019-03-09T14:39:55.204Z,99807.23
2019-03-09T14:42:25.544Z,99803.19
2019-03-09T14:44:56.969Z,99799.69
2019-03-09T14:47:27.778Z,99795.49
2019-03-09T14:49:58.386Z,99793.14
2019-03-09T14:52:30.816Z,99786.44
2019-03-09T14:55:01.711Z,99780.75
2019-03-09T14:57:32.092Z,99776.95
2019-03-09T15:00:04.126Z,99759.02
2019-03-09T15:02:38.249Z,99751.69
2019-03-09T15:05:09.978Z,99752.00
2019-03-09T15:07:42.329Z,99750.40
2019-03-09T15:10:13.459Z,99745.45
2019-03-09T15:12:44.439Z,99745.30
2019-03-09T15:15:20.480Z,99744.10
2019-03-09T15:17:51.221Z,99741.39
2019-03-09T15:20:21.610Z,99740.77
2019-03-09T15:22:51.969Z,99731.21
2019-03-09T15:25:23.069Z,99726.64
2019-03-09T15:27:54.741Z,99716.53
2019-03-09T15:30:25.290Z,99718.23
2019-03-09T15:32:55.872Z,99718.25
2019-03-09T15:35:26.409Z,99707.20
2019-03-09T15:37:58.318Z,99706.19
2019-03-09T15:40:29.405Z,99707.34
2019-03-09T15:43:00.181Z,99703.92
2019-03-09T15:45:31.069Z,99701.72
2019-03-09T15:48:01.989Z,99705.30
2019-03-09T15:50:32.731Z,99712.20
2019-03-09T15:53:03.284Z,99707.77
2019-03-09T15:55:33.875Z,99702.19
2019-03-09T15:58:06.644Z,99700.90
2019-03-09T16:00:36.999Z,99697.56
2019-03-09T16:03:07.345Z,99690.83
2019-03-09T16:05:37.682Z,99690.15
2019-03-09T16:08:07.966Z,99699.00
2019-03-09T16:10:38.345Z,99695.64
2019-03-09T16:13:08.659Z,99695.14
2019-03-09T16:15:39.058Z,99698.20
2019-03-09T16:18:09.492Z,99701.38
2019-03-09T16:20:41.178Z,99681.75
2019-03-09T16:23:11.515Z,99687.53
2019-03-09T16:25:41.856Z,99682.75
2019-03-09T16:28:12.241Z,99686.52
2019-03-09T16:30:42.531Z,99677.58
2019-03-09T16:33:12.811Z,99673.80
2019-03-09T16:35:43.365Z,99669.52
2019-03-09T16:38:13.678Z,99657.16
2019-03-09T16:40:44.085Z,99659.06
2019-03-09T16:43:14.355Z,99662.39
2019-03-09T16:45:44.642Z,99660.17
2019-03-09T16:48:15.033Z,99650.83
2019-03-09T16:50:48.354Z,99658.13
2019-03-09T16:53:18.621Z,99652.42
2019-03-09T16:55:49.976Z,99646.07
2019-03-09T16:58:21.133Z,99643.98
2019-03-09T17:00:51.572Z,99631.01
2019-03-09T17:03:21.880Z,99623.05
2019-03-09T17:05:52.265Z,99605.89
2019-03-09T17:08:22.542Z,99612.63
2019-03-09T17:10:53.705Z,99615.67
2019-03-09T17:13:24.133Z,99617.84
2019-03-09T17:15:54.593Z,99655.53
2019-03-09T17:18:24.954Z,99729.80
2019-03-09T17:20:56.822Z,99726.78
2019-03-09T17:23:27.279Z,99673.99
2019-03-09T17:25:57.644Z,99666.06
2019-03-09T17:28:27.961Z,99669.82
2019-03-09T17:30:59.405Z,99662.39
2019-03-09T17:33:30.055Z,99668.30
2019-03-09T17:36:00.570Z,99676.07
2019-03-09T17:38:30.940Z,99681.31
2019-03-09T17:41:01.295Z,99677.77
2019-03-09T17:43:33.263Z,99678.61
2019-03-09T17:46:04.646Z,99675.23
2019-03-09T17:48:35.136Z,99666.45
2019-03-09T17:51:05.544Z,99668.14
2019-03-09T17:53:35.919Z,99669.16
2019-03-09T17:56:06.378Z,99660.20
2019-03-09T17:58:36.775Z,99658.69
2019-03-09T18:01:07.065Z,99657.67
2019-03-09T18:03:37.373Z,99663.59
2019-03-09T18:06:07.664Z,99667.47
2019-03-09T18:08:37.933Z,99682.33
2019-03-09T18:11:10.645Z,99696.37
2019-03-09T18:13:42.040Z,99691.12
2019-03-09T18:16:12.399Z,99682.67
2019-03-09T18:18:42.739Z,99690.45
2019-03-09T18:21:13.095Z,99676.59
2019-03-09T18:23:43.847Z,99676.25
2019-03-09T18:26:14.129Z,99701.91
2019-03-09T18:28:45.512Z,99709.50
2019-03-09T18:31:15.810Z,99716.19
2019-03-09T18:33:46.230Z,99689.80
2019-03-09T18:36:18.272Z,99668.03
2019-03-09T18:38:48.641Z,99682.86
2019-03-09T18:41:18.981Z,99681.23
2019-03-09T18:43:49.333Z,99674.87
2019-03-09T18:46:19.675Z,99670.33
2019-03-09T18:48:49.972Z,99652.94
2019-03-09T18:51:20.316Z,99616.15
2019-03-09T18:53:50.659Z,99601.62
2019-03-09T18:56:20.934Z,99597.23
2019-03-09T18:58:51.462Z,99622.91
2019-03-09T19:01:21.805Z,99633.55
2019-03-09T19:03:52.199Z,99625.78
2019-03-09T19:06:22.570Z,99623.75
2019-03-09T19:08:55.963Z,99624.94
2019-03-09T19:11:26.230Z,99624.59
2019-03-09T19:13:56.490Z,99617.34
2019-03-09T19:16:26.778Z,99610.58
2019-03-09T19:18:57.139Z,99607.02
2019-03-09T19:21:27.489Z,99604.77
2019-03-09T19:23:57.847Z,99604.92
2019-03-09T19:26:28.234Z,99597.67
2019-03-09T19:28:58.536Z,99585.88
2019-03-09T19:31:29.179Z,99574.44
2019-03-09T19:33:59.569Z,99558.41
2019-03-09T19:36:29.966Z,99544.56
2019-03-09T19:39:00.451Z,99535.61
2019-03-09T19:41:31.899Z,99517.86
2019-03-09T19:44:03.821Z,99514.27
2019-03-09T19:46:35.682Z,99513.14
2019-03-09T19:49:07.068Z,99528.34
2019-03-09T19:51:37.412Z,99515.70
2019-03-09T19:54:07.902Z,99508.95
2019-03-09T19:56:38.269Z,99511.97
2019-03-09T19:59:08.616Z,99499.46
2019-03-09T20:01:39.270Z,99512.59
2019-03-09T20:04:11.087Z,99528.67
2019-03-09T20:06:41.441Z,99551.58
2019-03-09T20:09:11.820Z,99535.02
2019-03-09T20:11:42.214Z,99505.32
2019-03-09T20:14:12.483Z,99486.83
2019-03-09T20:16:42.874Z,99471.96
2019-03-09T20:19:13.209Z,99485.45
2019-03-09T20:21:43.518Z,99480.03
2019-03-09T20:24:13.882Z,99445.98
2019-03-09T20:26:44.267Z,99433.50
2019-03-09T20:29:14.534Z,99426.25
2019-03-09T20:31:47.016Z,99425.41
2019-03-09T20:34:18.106Z,99426.59
2019-03-09T20:36:49.522Z,99411.60
2019-03-09T20:39:20.071Z,99416.33
2019-03-09T20:41:50.413Z,99414.48
2019-03-09T20:44:21.823Z,99398.63
2019-03-09T20:46:52.150Z,99403.19
2019-03-09T20:49:22.507Z,99390.53
2019-03-09T20:51:52.763Z,99385.98
2019-03-09T20:54:23.264Z,99384.30
2019-03-09T20:56:53.616Z,99379.91
2019-03-09T20:59:24.054Z,99376.52
2019-03-09T21:01:54.405Z,99371.13
2019-03-09T21:04:24.721Z,99370.13
2019-03-09T21:06:55.103Z,99371.45
2019-03-09T21:09:25.449Z,99370.62
2019-03-09T21:11:55.816Z,99371.81
2019-03-09T21:14:27.768Z,99368.45
2019-03-09T21:16:59.755Z,99374.52
2019-03-09T21:19:30.208Z,99365.75
2019-03-09T21:22:00.642Z,99368.45
2019-03-09T21:24:31.344Z,99371.48
2019-03-09T21:27:01.710Z,99377.68
2019-03-09T21:29:31.991Z,99366.71
2019-03-09T21:32:02.271Z,99380.81
2019-03-09T21:34:32.764Z,99386.80
2019-03-09T21:37:03.088Z,99395.70
2019-03-09T21:39:33.468Z,99393.23
2019-03-09T21:42:03.860Z,99400.45
2019-03-09T21:44:34.242Z,99413.76
2019-03-09T21:47:04.587Z,99417.27
2019-03-09T21:49:34.901Z,99427.64
2019-03-09T21:52:05.246Z,99439.06
2019-03-09T21:54:35.580Z,99436.03
2019-03-09T21:57:05.945Z,99428.25
2019-03-09T21:59:36.217Z,99434.45
2019-03-09T22:02:07.780Z,99426.30
2019-03-09T22:04:38.098Z,99426.27
2019-03-09T22:07:09.521Z,99426.59
2019-03-09T22:09:39.868Z,99430.63
2019-03-09T22:12:10.212Z,99431.50
2019-03-09T22:14:40.495Z,99424.73
2019-03-09T22:17:11.748Z,99430.25
2019-03-09T22:19:42.031Z,99422.27
2019-03-09T22:22:12.435Z,99427.27
2019-03-09T22:24:42.712Z,99422.55
2019-03-09T22:27:14.683Z,99426.41
2019-03-09T22:29:44.979Z,99429.87
2019-03-09T22:32:15.389Z,99437.62
2019-03-09T22:34:45.770Z,99438.56
2019-03-09T22:37:16.118Z,99444.67
2019-03-09T22:39:46.447Z,99455.72
2019-03-09T22:42:18.209Z,99461.20
2019-03-09T22:44:48.556Z,99461.31
2019-03-09T22:47:18.907Z,99479.59
2019-03-09T22:49:49.156Z,99478.71
2019-03-09T22:52:19.613Z,99482.59
2019-03-09T22:54:50.001Z,99491.59
2019-03-09T22:57:20.313Z,99496.09
2019-03-09T22:59:52.126Z,99518.72
2019-03-09T23:02:22.455Z,99517.48
2019-03-09T23:04:52.824Z,99530.86
2019-03-09T23:07:25.514Z,99536.70
2019-03-09T23:09:55.846Z,99537.54
2019-03-09T23:12:26.184Z,99545.41
2019-03-09T23:14:58.132Z,99548.84
2019-03-09T23:17:28.539Z,99567.36
2019-03-09T23:19:58.897Z,99577.62
2019-03-09T23:22:29.253Z,99589.03
2019-03-09T23:24:59.610Z,99595.06
2019-03-09T23:27:29.949Z,99611.30
2019-03-09T23:30:00.374Z,99646.22
2019-03-09T23:32:30.704Z,99650.84
2019-03-09T23:35:01.059Z,99683.59
2019-03-09T23:37:31.402Z,99691.95
2019-03-09T23:40:01.725Z,99709.95
2019-03-09T23:42:32.071Z,99723.69
2019-03-09T23:45:02.400Z,99736.75
2019-03-09T23:47:32.718Z,99739.53
2019-03-09T23:50:03.058Z,99762.38
2019-03-09T23:52:33.402Z,99756.11
2019-03-09T23:55:04.217Z,99769.98
2019-03-09T23:57:34.555Z,99784.52
